Frisco, North Carolina
Current Conditions -  °F | °C
As of 2:51 PM on Wednesday 26 Nov 2014 (Local Time) from KHSE Reporting Station
Light Rain Light Rain  
Wind Chill: 50°   Ceiling: 700
Heat Index: 50°   Visibility: 10mi
Dew Point: 50°   Wind: 9mph
Humidity: 100%   Direction: 330°NNW
Pressure: 29.75"   Gusts: NA
Location:  35.23°N, 75.63°W
Report Text: KHSE 261951Z AUTO 33008KT 10SM -RA OVC007 10/10 A2975 RMK AO2 SLP074 P0000 T01000100 TSNO
Loading
Personal Weather Stations






























Interactive Weather Map New forecast layout! Learn more

10-Day Weather Forecast

Advertisements
Track Severe Weather on mobile